MSC Vienna — A8CI9 — position and weather

sailwx.info

Track history (hours):
 
Tides and Currents Weather Stations Pressure Air Temp Water Temp Dewpoint Dewpoint Depression Visibility Wind Speed Wind Dir Waves Ship Positions

MSC Vienna

Last reported at 2015-Jan-22 04:21 UTC. Time now 2015-Jan-25 16:22 UTC.
Position N 36°12' W 026°55'.

Length 260.1 m; beam 32.2 m; draft 12 m.

Type: Ship. MMSI: 636090654.

Date/timePositionNaut miles runAvg speedWind from/ knotsBaromVisibWave heightAir tempDewpointWater temp
2015-Jan-22 04:21N 36°12' W 026°55'1417.0
2015-Jan-22 03:31N 36°11' W 026°37'2117.5
2015-Jan-22 02:19N 36°08' W 026°12'1317.6
2015-Jan-22 01:33N 36°06' W 025°55'1817.8
2015-Jan-22 00:33N 36°04' W 025°33'1817.5
2015-Jan-21 23:33N 36°01' W 025°12'1217.2
2015-Jan-21 22:50N 36°00' W 024°57'117.0
2015-Jan-21 22:46N 35°60' W 024°55'417.0
2015-Jan-21 22:33N 35°60' W 024°51'1717.1
2015-Jan-21 21:34N 35°60' W 024°30'1717.0
2015-Jan-21 20:33N 35°60' W 024°09'5116.9
2015-Jan-21 17:31N 35°60' W 023°05'85718.2
2015-Jan-19 18:30N 35°59' W 005°26'21819.7
2015-Jan-19 07:26N 37°10' W 001°09'1821.0
2015-Jan-19 06:33N 37°22' W 000°51'2220.9
2015-Jan-19 05:31N 37°37' W 000°31'2221.0
2015-Jan-19 04:30N 37°55' W 000°16'8716.3
2015-Jan-18 23:11N 39°21' W 000°09'914.3
2015-Jan-18 22:33N 39°26' W 000°19'0 0.4
2015-Jan-18 21:28N 39°26' W 000°20'0 0.0
2015-Jan-18 20:25N 39°26' W 000°20'0 0.0
2015-Jan-18 18:27N 39°26' W 000°19'0 0.0
2015-Jan-18 17:23N 39°26' W 000°19'0 0.0
2015-Jan-18 16:32N 39°26' W 000°19'0 0.0
2015-Jan-18 15:29N 39°26' W 000°19'0 0.0
2015-Jan-18 14:28N 39°26' W 000°19'0 0.0
2015-Jan-18 12:15N 39°26' W 000°20'0 0.0
2015-Jan-18 11:06N 39°26' W 000°20'0 0.0
2015-Jan-18 10:17N 39°26' W 000°19'0 0.3
2015-Jan-18 09:32N 39°26' W 000°19'0 0.2
2015-Jan-18 08:32N 39°26' W 000°20'0 0.0
2015-Jan-18 07:22N 39°26' W 000°20'0 0.0
2015-Jan-18 06:22N 39°26' W 000°20'0 0.0
2015-Jan-18 05:21N 39°26' W 000°20'0 0.0
2015-Jan-18 04:15N 39°26' W 000°20'0 0.0
2015-Jan-18 03:32N 39°26' W 000°20'0 0.0
2015-Jan-18 02:26N 39°26' W 000°20'0 0.0
2015-Jan-18 01:32N 39°26' W 000°20'0 0.0
2015-Jan-18 00:31N 39°26' W 000°20'0 0.0
2015-Jan-17 23:25N 39°26' W 000°20'0 0.0
2015-Jan-17 22:33N 39°26' W 000°20'0 0.0
2015-Jan-17 21:33N 39°26' W 000°20'0 0.0
2015-Jan-17 20:32N 39°26' W 000°20'0 0.0
2015-Jan-17 19:32N 39°26' W 000°20'0 0.0
2015-Jan-17 18:32N 39°26' W 000°20'0 0.0
2015-Jan-17 17:31N 39°26' W 000°20'0 0.0
2015-Jan-17 16:31N 39°26' W 000°20'0 0.0
2015-Jan-17 15:33N 39°26' W 000°20'0 0.0
2015-Jan-17 14:30N 39°26' W 000°20'0 0.0
2015-Jan-17 13:23N 39°26' W 000°20'0 0.0
2015-Jan-17 12:33N 39°26' W 000°20'3 2.9
2015-Jan-17 11:33N 39°25' W 000°16'2 2.3
2015-Jan-17 10:33N 39°24' W 000°13'6312.0
2015-Jan-17 05:18N 39°17' E 001°07'1013.2
2015-Jan-17 04:31N 39°15' E 001°21'1313.2
2015-Jan-17 03:33N 39°14' E 001°37'1413.7
2015-Jan-17 02:33N 39°11' E 001°54'1414.3
2015-Jan-17 01:33N 39°09' E 002°12'1414.0
2015-Jan-17 00:33N 39°06' E 002°30'1414.0
2015-Jan-16 23:33N 39°03' E 002°48'1313.4
2015-Jan-16 22:33N 39°01' E 003°05'1313.2
2015-Jan-16 21:33N 38°58' E 003°22'1313.0
2015-Jan-16 20:33N 38°56' E 003°38'1312.6
2015-Jan-16 19:33N 38°54' E 003°54'18614.1
2015-Jan-16 06:23N 38°20' E 007°47'2714.2
2015-Jan-16 04:28N 38°15' E 008°21'1314.6
2015-Jan-16 03:33N 38°12' E 008°38'1414.2
2015-Jan-16 02:32N 38°09' E 008°56'2014.4
2015-Jan-16 01:10N 38°06' E 009°21'1214.6
2015-Jan-16 00:22N 38°04' E 009°35'1214.3
2015-Jan-15 23:30N 38°02' E 009°51'1313.5
2015-Jan-15 22:33N 37°57' E 010°06'1413.6
2015-Jan-15 21:33N 37°50' E 010°20'1413.8
2015-Jan-15 20:33N 37°43' E 010°36'1514.8
2015-Jan-15 19:33N 37°37' E 010°53'1615.6
2015-Jan-15 18:31N 37°28' E 011°10'6014.6
2015-Jan-15 14:27N 37°01' E 012°16'4214.5
2015-Jan-15 11:32N 36°49' E 013°07'1514.3
2015-Jan-15 10:31N 36°45' E 013°25'1414.5
2015-Jan-15 09:34N 36°41' E 013°41'1414.5
2015-Jan-15 08:34N 36°37' E 013°59'1414.4
2015-Jan-15 07:34N 36°32' E 014°15'1514.2
2015-Jan-15 06:30N 36°28' E 014°33'1414.1
2015-Jan-15 05:29N 36°24' E 014°51'1314.2
2015-Jan-15 04:33N 36°21' E 015°06'1414.2
2015-Jan-15 03:33N 36°17' E 015°24'  
Track history (hours):
 
Tides and Currents Weather Stations Pressure Air Temp Water Temp Dewpoint Dewpoint Depression Visibility Wind Speed Wind Dir Waves Ship Positions

MSC Vienna

Last reported at 2015-Jan-22 04:21 UTC. Time now 2015-Jan-25 16:22 UTC.
Position N 36°12' W 026°55'.

Length 260.1 m; beam 32.2 m; draft 12 m.

Type: Ship. MMSI: 636090654.

Date/timePositionNaut miles runAvg speedWind from/ knotsBaromVisibWave heightAir tempDewpointWater temp
2015-Jan-22 04:21N 36°12' W 026°55'1417.0
2015-Jan-22 03:31N 36°11' W 026°37'2117.5
2015-Jan-22 02:19N 36°08' W 026°12'1317.6
2015-Jan-22 01:33N 36°06' W 025°55'1817.8
2015-Jan-22 00:33N 36°04' W 025°33'1817.5
2015-Jan-21 23:33N 36°01' W 025°12'1217.2
2015-Jan-21 22:50N 36°00' W 024°57'117.0
2015-Jan-21 22:46N 35°60' W 024°55'417.0
2015-Jan-21 22:33N 35°60' W 024°51'1717.1
2015-Jan-21 21:34N 35°60' W 024°30'1717.0
2015-Jan-21 20:33N 35°60' W 024°09'5116.9
2015-Jan-21 17:31N 35°60' W 023°05'85718.2
2015-Jan-19 18:30N 35°59' W 005°26'21819.7
2015-Jan-19 07:26N 37°10' W 001°09'1821.0
2015-Jan-19 06:33N 37°22' W 000°51'2220.9
2015-Jan-19 05:31N 37°37' W 000°31'2221.0
2015-Jan-19 04:30N 37°55' W 000°16'8716.3
2015-Jan-18 23:11N 39°21' W 000°09'914.3
2015-Jan-18 22:33N 39°26' W 000°19'0 0.4
2015-Jan-18 21:28N 39°26' W 000°20'0 0.0
2015-Jan-18 20:25N 39°26' W 000°20'0 0.0
2015-Jan-18 18:27N 39°26' W 000°19'0 0.0
2015-Jan-18 17:23N 39°26' W 000°19'0 0.0
2015-Jan-18 16:32N 39°26' W 000°19'0 0.0
2015-Jan-18 15:29N 39°26' W 000°19'0 0.0
2015-Jan-18 14:28N 39°26' W 000°19'0 0.0
2015-Jan-18 12:15N 39°26' W 000°20'0 0.0
2015-Jan-18 11:06N 39°26' W 000°20'0 0.0
2015-Jan-18 10:17N 39°26' W 000°19'0 0.3
2015-Jan-18 09:32N 39°26' W 000°19'0 0.2
2015-Jan-18 08:32N 39°26' W 000°20'0 0.0
2015-Jan-18 07:22N 39°26' W 000°20'0 0.0
2015-Jan-18 06:22N 39°26' W 000°20'0 0.0
2015-Jan-18 05:21N 39°26' W 000°20'0 0.0
2015-Jan-18 04:15N 39°26' W 000°20'0 0.0
2015-Jan-18 03:32N 39°26' W 000°20'0 0.0
2015-Jan-18 02:26N 39°26' W 000°20'0 0.0
2015-Jan-18 01:32N 39°26' W 000°20'0 0.0
2015-Jan-18 00:31N 39°26' W 000°20'0 0.0
2015-Jan-17 23:25N 39°26' W 000°20'0 0.0
2015-Jan-17 22:33N 39°26' W 000°20'0 0.0
2015-Jan-17 21:33N 39°26' W 000°20'0 0.0
2015-Jan-17 20:32N 39°26' W 000°20'0 0.0
2015-Jan-17 19:32N 39°26' W 000°20'0 0.0
2015-Jan-17 18:32N 39°26' W 000°20'0 0.0
2015-Jan-17 17:31N 39°26' W 000°20'0 0.0
2015-Jan-17 16:31N 39°26' W 000°20'0 0.0
2015-Jan-17 15:33N 39°26' W 000°20'0 0.0
2015-Jan-17 14:30N 39°26' W 000°20'0 0.0
2015-Jan-17 13:23N 39°26' W 000°20'0 0.0
2015-Jan-17 12:33N 39°26' W 000°20'3 2.9
2015-Jan-17 11:33N 39°25' W 000°16'2 2.3
2015-Jan-17 10:33N 39°24' W 000°13'6312.0
2015-Jan-17 05:18N 39°17' E 001°07'1013.2
2015-Jan-17 04:31N 39°15' E 001°21'1313.2
2015-Jan-17 03:33N 39°14' E 001°37'1413.7
2015-Jan-17 02:33N 39°11' E 001°54'1414.3
2015-Jan-17 01:33N 39°09' E 002°12'1414.0
2015-Jan-17 00:33N 39°06' E 002°30'1414.0
2015-Jan-16 23:33N 39°03' E 002°48'1313.4
2015-Jan-16 22:33N 39°01' E 003°05'1313.2
2015-Jan-16 21:33N 38°58' E 003°22'1313.0
2015-Jan-16 20:33N 38°56' E 003°38'1312.6
2015-Jan-16 19:33N 38°54' E 003°54'18614.1
2015-Jan-16 06:23N 38°20' E 007°47'2714.2
2015-Jan-16 04:28N 38°15' E 008°21'1314.6
2015-Jan-16 03:33N 38°12' E 008°38'1414.2
2015-Jan-16 02:32N 38°09' E 008°56'2014.4
2015-Jan-16 01:10N 38°06' E 009°21'1214.6
2015-Jan-16 00:22N 38°04' E 009°35'1214.3
2015-Jan-15 23:30N 38°02' E 009°51'1313.5
2015-Jan-15 22:33N 37°57' E 010°06'1413.6
2015-Jan-15 21:33N 37°50' E 010°20'1413.8
2015-Jan-15 20:33N 37°43' E 010°36'1514.8
2015-Jan-15 19:33N 37°37' E 010°53'1615.6
2015-Jan-15 18:31N 37°28' E 011°10'6014.6
2015-Jan-15 14:27N 37°01' E 012°16'4214.5
2015-Jan-15 11:32N 36°49' E 013°07'1514.3
2015-Jan-15 10:31N 36°45' E 013°25'1414.5
2015-Jan-15 09:34N 36°41' E 013°41'1414.5
2015-Jan-15 08:34N 36°37' E 013°59'1414.4
2015-Jan-15 07:34N 36°32' E 014°15'1514.2
2015-Jan-15 06:30N 36°28' E 014°33'1414.1
2015-Jan-15 05:29N 36°24' E 014°51'1314.2
2015-Jan-15 04:33N 36°21' E 015°06'1414.2
2015-Jan-15 03:33N 36°17' E 015°24'  

Dump ship's entire track history